sensor_id;sensor_type;location;lat;lon;timestamp;temperature;humidity
17053;DHT22;8643;48.824;11.422;2023-12-22T00:00:51;3.30;99.90
17053;DHT22;8643;48.824;11.422;2023-12-22T00:03:20;3.30;99.90
17053;DHT22;8643;48.824;11.422;2023-12-22T00:05:48;3.20;99.90
17053;DHT22;8643;48.824;11.422;2023-12-22T00:08:16;2.80;99.90
17053;DHT22;8643;48.824;11.422;2023-12-22T00:10:46;3.30;99.90
17053;DHT22;8643;48.824;11.422;2023-12-22T00:13:15;3.30;99.90
17053;DHT22;8643;48.824;11.422;2023-12-22T00:15:43;3.30;99.90
17053;DHT22;8643;48.824;11.422;2023-12-22T00:18:12;3.30;99.90
17053;DHT22;8643;48.824;11.422;2023-12-22T00:20:40;3.30;99.90
17053;DHT22;8643;48.824;11.422;2023-12-22T00:23:09;3.30;99.90
17053;DHT22;8643;48.824;11.422;2023-12-22T00:28:07;3.20;99.90
17053;DHT22;8643;48.824;11.422;2023-12-22T00:30:35;3.20;99.90
17053;DHT22;8643;48.824;11.422;2023-12-22T00:33:04;3.10;99.90
17053;DHT22;8643;48.824;11.422;2023-12-22T00:35:33;3.20;99.90
17053;DHT22;8643;48.824;11.422;2023-12-22T00:38:03;3.10;99.90
17053;DHT22;8643;48.824;11.422;2023-12-22T00:40:31;3.00;99.90
17053;DHT22;8643;48.824;11.422;2023-12-22T00:43:00;3.00;99.90
17053;DHT22;8643;48.824;11.422;2023-12-22T00:45:30;3.00;99.90
17053;DHT22;8643;48.824;11.422;2023-12-22T00:47:58;2.90;99.90
17053;DHT22;8643;48.824;11.422;2023-12-22T00:50:27;2.90;99.90
17053;DHT22;8643;48.824;11.422;2023-12-22T00:52:56;2.90;99.90
17053;DHT22;8643;48.824;11.422;2023-12-22T00:55:24;2.90;99.90
17053;DHT22;8643;48.824;11.422;2023-12-22T00:57:52;2.90;99.90
17053;DHT22;8643;48.824;11.422;2023-12-22T01:00:21;2.90;99.90
17053;DHT22;8643;48.824;11.422;2023-12-22T01:02:51;2.90;99.90
17053;DHT22;8643;48.824;11.422;2023-12-22T01:05:19;2.90;99.90
17053;DHT22;8643;48.824;11.422;2023-12-22T01:07:48;2.90;99.90
17053;DHT22;8643;48.824;11.422;2023-12-22T01:10:17;2.90;99.90
17053;DHT22;8643;48.824;11.422;2023-12-22T01:12:46;2.90;99.90
17053;DHT22;8643;48.824;11.422;2023-12-22T01:15:14;2.90;99.90
17053;DHT22;8643;48.824;11.422;2023-12-22T01:17:43;2.90;99.90
17053;DHT22;8643;48.824;11.422;2023-12-22T01:20:14;2.90;99.90
17053;DHT22;8643;48.824;11.422;2023-12-22T01:22:42;2.90;99.90
17053;DHT22;8643;48.824;11.422;2023-12-22T01:25:11;2.90;99.90
17053;DHT22;8643;48.824;11.422;2023-12-22T01:27:39;2.90;99.90
17053;DHT22;8643;48.824;11.422;2023-12-22T01:30:08;2.90;99.90
17053;DHT22;8643;48.824;11.422;2023-12-22T01:32:37;2.80;99.90
17053;DHT22;8643;48.824;11.422;2023-12-22T01:35:06;2.70;99.90
17053;DHT22;8643;48.824;11.422;2023-12-22T01:37:38;2.90;99.90
17053;DHT22;8643;48.824;11.422;2023-12-22T01:40:08;2.90;99.90
17053;DHT22;8643;48.824;11.422;2023-12-22T01:42:37;2.90;99.90
17053;DHT22;8643;48.824;11.422;2023-12-22T01:45:07;2.90;99.90
17053;DHT22;8643;48.824;11.422;2023-12-22T01:47:38;2.90;99.90
17053;DHT22;8643;48.824;11.422;2023-12-22T01:50:07;2.90;99.90
17053;DHT22;8643;48.824;11.422;2023-12-22T01:52:42;3.00;99.90
17053;DHT22;8643;48.824;11.422;2023-12-22T01:55:12;1.80;99.90
17053;DHT22;8643;48.824;11.422;2023-12-22T01:57:44;3.00;99.90
17053;DHT22;8643;48.824;11.422;2023-12-22T02:00:14;3.00;99.90
17053;DHT22;8643;48.824;11.422;2023-12-22T02:02:43;3.00;99.90
17053;DHT22;8643;48.824;11.422;2023-12-22T02:05:12;3.00;99.90
17053;DHT22;8643;48.824;11.422;2023-12-22T02:07:42;2.90;99.90
17053;DHT22;8643;48.824;11.422;2023-12-22T02:10:11;2.90;99.90
17053;DHT22;8643;48.824;11.422;2023-12-22T02:12:42;2.90;99.90
17053;DHT22;8643;48.824;11.422;2023-12-22T02:15:11;2.90;99.90
17053;DHT22;8643;48.824;11.422;2023-12-22T02:17:46;2.80;99.90
17053;DHT22;8643;48.824;11.422;2023-12-22T02:20:20;2.90;99.90
17053;DHT22;8643;48.824;11.422;2023-12-22T02:22:52;2.90;99.90
17053;DHT22;8643;48.824;11.422;2023-12-22T02:25:21;2.80;99.90
17053;DHT22;8643;48.824;11.422;2023-12-22T02:27:53;2.80;99.90
17053;DHT22;8643;48.824;11.422;2023-12-22T02:30:28;2.80;99.90
17053;DHT22;8643;48.824;11.422;2023-12-22T02:33:03;2.70;99.90
17053;DHT22;8643;48.824;11.422;2023-12-22T02:35:35;2.80;99.90
17053;DHT22;8643;48.824;11.422;2023-12-22T02:38:07;2.70;99.90
17053;DHT22;8643;48.824;11.422;2023-12-22T02:40:36;2.70;99.90
17053;DHT22;8643;48.824;11.422;2023-12-22T02:43:06;2.80;99.90
17053;DHT22;8643;48.824;11.422;2023-12-22T02:45:35;2.70;99.90
17053;DHT22;8643;48.824;11.422;2023-12-22T02:48:04;2.70;99.90
17053;DHT22;8643;48.824;11.422;2023-12-22T02:53:03;2.80;99.90
17053;DHT22;8643;48.824;11.422;2023-12-22T02:55:32;2.80;99.90
17053;DHT22;8643;48.824;11.422;2023-12-22T02:58:01;2.80;99.90
17053;DHT22;8643;48.824;11.422;2023-12-22T03:00:29;2.90;99.90
17053;DHT22;8643;48.824;11.422;2023-12-22T03:02:58;2.90;99.90
17053;DHT22;8643;48.824;11.422;2023-12-22T03:05:27;3.00;99.90
17053;DHT22;8643;48.824;11.422;2023-12-22T03:07:55;3.00;99.90
17053;DHT22;8643;48.824;11.422;2023-12-22T03:10:24;3.00;99.90
17053;DHT22;8643;48.824;11.422;2023-12-22T03:12:54;3.00;99.90
17053;DHT22;8643;48.824;11.422;2023-12-22T03:15:22;3.10;99.90
17053;DHT22;8643;48.824;11.422;2023-12-22T03:17:51;3.00;99.90
17053;DHT22;8643;48.824;11.422;2023-12-22T03:20:19;3.10;99.90
17053;DHT22;8643;48.824;11.422;2023-12-22T03:22:48;3.10;99.90
17053;DHT22;8643;48.824;11.422;2023-12-22T03:25:16;3.00;99.90
17053;DHT22;8643;48.824;11.422;2023-12-22T03:27:45;3.00;99.90
17053;DHT22;8643;48.824;11.422;2023-12-22T03:30:15;2.90;99.90
17053;DHT22;8643;48.824;11.422;2023-12-22T03:32:44;2.90;99.90
17053;DHT22;8643;48.824;11.422;2023-12-22T03:35:12;2.80;99.90
17053;DHT22;8643;48.824;11.422;2023-12-22T03:37:40;2.70;99.90
17053;DHT22;8643;48.824;11.422;2023-12-22T03:40:09;2.50;99.90
17053;DHT22;8643;48.824;11.422;2023-12-22T03:42:38;2.50;99.90
17053;DHT22;8643;48.824;11.422;2023-12-22T03:45:07;2.50;99.90
17053;DHT22;8643;48.824;11.422;2023-12-22T03:47:37;2.50;99.90
17053;DHT22;8643;48.824;11.422;2023-12-22T03:50:06;2.50;99.90
17053;DHT22;8643;48.824;11.422;2023-12-22T03:52:35;2.50;99.90
17053;DHT22;8643;48.824;11.422;2023-12-22T03:55:04;2.60;99.90
17053;DHT22;8643;48.824;11.422;2023-12-22T03:57:33;2.50;99.90
17053;DHT22;8643;48.824;11.422;2023-12-22T04:00:02;2.50;99.90
17053;DHT22;8643;48.824;11.422;2023-12-22T04:02:32;2.50;99.90
17053;DHT22;8643;48.824;11.422;2023-12-22T04:05:02;2.50;99.90
17053;DHT22;8643;48.824;11.422;2023-12-22T04:07:31;2.40;99.90
17053;DHT22;8643;48.824;11.422;2023-12-22T04:09:59;2.30;99.90
17053;DHT22;8643;48.824;11.422;2023-12-22T04:12:28;2.20;99.90
17053;DHT22;8643;48.824;11.422;2023-12-22T04:14:56;2.10;99.90
17053;DHT22;8643;48.824;11.422;2023-12-22T04:17:25;2.00;99.90
17053;DHT22;8643;48.824;11.422;2023-12-22T04:19:53;2.10;99.90
17053;DHT22;8643;48.824;11.422;2023-12-22T04:22:23;2.00;99.90
17053;DHT22;8643;48.824;11.422;2023-12-22T04:24:51;2.00;99.90
17053;DHT22;8643;48.824;11.422;2023-12-22T04:27:20;2.00;99.90
17053;DHT22;8643;48.824;11.422;2023-12-22T04:32:17;2.10;99.90
17053;DHT22;8643;48.824;11.422;2023-12-22T04:34:45;2.10;99.90
17053;DHT22;8643;48.824;11.422;2023-12-22T04:37:14;2.10;99.90
17053;DHT22;8643;48.824;11.422;2023-12-22T04:39:44;2.20;99.90
17053;DHT22;8643;48.824;11.422;2023-12-22T04:42:12;2.30;99.90
17053;DHT22;8643;48.824;11.422;2023-12-22T04:44:41;2.30;99.90
17053;DHT22;8643;48.824;11.422;2023-12-22T04:47:09;2.40;99.90
17053;DHT22;8643;48.824;11.422;2023-12-22T04:52:08;2.40;99.90
17053;DHT22;8643;48.824;11.422;2023-12-22T04:54:36;2.40;99.90
17053;DHT22;8643;48.824;11.422;2023-12-22T04:57:06;2.40;99.90
17053;DHT22;8643;48.824;11.422;2023-12-22T05:02:03;2.40;99.90
17053;DHT22;8643;48.824;11.422;2023-12-22T05:04:32;2.30;99.90
17053;DHT22;8643;48.824;11.422;2023-12-22T05:07:01;2.30;99.90
17053;DHT22;8643;48.824;11.422;2023-12-22T05:09:34;2.30;99.90
17053;DHT22;8643;48.824;11.422;2023-12-22T05:12:02;2.30;99.90
17053;DHT22;8643;48.824;11.422;2023-12-22T05:14:32;2.40;99.90
17053;DHT22;8643;48.824;11.422;2023-12-22T05:17:01;2.40;99.90
17053;DHT22;8643;48.824;11.422;2023-12-22T05:19:29;2.40;99.90
17053;DHT22;8643;48.824;11.422;2023-12-22T05:21:58;2.40;99.90
17053;DHT22;8643;48.824;11.422;2023-12-22T05:24:26;2.30;99.90
17053;DHT22;8643;48.824;11.422;2023-12-22T05:26:55;2.40;99.90
17053;DHT22;8643;48.824;11.422;2023-12-22T05:29:24;2.30;99.90
17053;DHT22;8643;48.824;11.422;2023-12-22T05:31:53;2.40;99.90
17053;DHT22;8643;48.824;11.422;2023-12-22T05:34:22;2.40;99.90
17053;DHT22;8643;48.824;11.422;2023-12-22T05:36:51;2.40;99.90
17053;DHT22;8643;48.824;11.422;2023-12-22T05:39:19;2.40;99.90
17053;DHT22;8643;48.824;11.422;2023-12-22T05:41:47;2.50;99.90
17053;DHT22;8643;48.824;11.422;2023-12-22T05:44:16;2.40;99.90
17053;DHT22;8643;48.824;11.422;2023-12-22T05:49:15;2.40;99.90
17053;DHT22;8643;48.824;11.422;2023-12-22T05:51:43;2.40;99.90
17053;DHT22;8643;48.824;11.422;2023-12-22T05:54:12;2.40;99.90
17053;DHT22;8643;48.824;11.422;2023-12-22T05:56:40;2.30;99.90
17053;DHT22;8643;48.824;11.422;2023-12-22T05:59:09;2.30;99.90
17053;DHT22;8643;48.824;11.422;2023-12-22T06:01:37;2.30;99.90
17053;DHT22;8643;48.824;11.422;2023-12-22T06:04:06;2.30;99.90
17053;DHT22;8643;48.824;11.422;2023-12-22T06:06:37;2.30;99.90
17053;DHT22;8643;48.824;11.422;2023-12-22T06:09:06;2.30;99.90
17053;DHT22;8643;48.824;11.422;2023-12-22T06:14:03;2.30;99.90
17053;DHT22;8643;48.824;11.422;2023-12-22T06:16:32;2.30;99.90
17053;DHT22;8643;48.824;11.422;2023-12-22T06:19:00;2.30;99.90
17053;DHT22;8643;48.824;11.422;2023-12-22T06:21:29;2.30;99.90
17053;DHT22;8643;48.824;11.422;2023-12-22T06:23:59;2.30;99.90
17053;DHT22;8643;48.824;11.422;2023-12-22T06:26:27;2.40;99.90
17053;DHT22;8643;48.824;11.422;2023-12-22T06:28:56;2.40;99.90
17053;DHT22;8643;48.824;11.422;2023-12-22T06:31:24;2.40;99.90
17053;DHT22;8643;48.824;11.422;2023-12-22T06:33:53;2.60;99.90
17053;DHT22;8643;48.824;11.422;2023-12-22T06:36:23;2.60;99.90
17053;DHT22;8643;48.824;11.422;2023-12-22T06:38:52;2.60;99.90
17053;DHT22;8643;48.824;11.422;2023-12-22T06:41:25;2.70;99.90
17053;DHT22;8643;48.824;11.422;2023-12-22T06:43:55;2.70;99.90
17053;DHT22;8643;48.824;11.422;2023-12-22T06:46:27;2.80;99.90
17053;DHT22;8643;48.824;11.422;2023-12-22T06:48:58;2.80;99.90
17053;DHT22;8643;48.824;11.422;2023-12-22T06:51:31;2.80;99.90
17053;DHT22;8643;48.824;11.422;2023-12-22T06:56:34;3.20;99.90
17053;DHT22;8643;48.824;11.422;2023-12-22T06:59:03;3.20;99.90
17053;DHT22;8643;48.824;11.422;2023-12-22T07:01:33;3.30;99.90
17053;DHT22;8643;48.824;11.422;2023-12-22T07:04:04;3.40;99.90
17053;DHT22;8643;48.824;11.422;2023-12-22T07:06:34;3.50;99.90
17053;DHT22;8643;48.824;11.422;2023-12-22T07:09:27;3.50;99.90
17053;DHT22;8643;48.824;11.422;2023-12-22T07:11:58;3.70;99.90
17053;DHT22;8643;48.824;11.422;2023-12-22T07:14:28;3.70;99.90
17053;DHT22;8643;48.824;11.422;2023-12-22T07:16:56;3.70;99.90
17053;DHT22;8643;48.824;11.422;2023-12-22T07:19:27;3.70;99.90
17053;DHT22;8643;48.824;11.422;2023-12-22T07:21:55;3.60;99.90
17053;DHT22;8643;48.824;11.422;2023-12-22T07:24:24;3.60;99.90
17053;DHT22;8643;48.824;11.422;2023-12-22T07:26:53;3.50;99.90
17053;DHT22;8643;48.824;11.422;2023-12-22T07:29:23;3.40;99.90
17053;DHT22;8643;48.824;11.422;2023-12-22T07:31:51;3.40;99.90
17053;DHT22;8643;48.824;11.422;2023-12-22T07:34:20;3.30;99.90
17053;DHT22;8643;48.824;11.422;2023-12-22T07:36:49;3.30;99.90
17053;DHT22;8643;48.824;11.422;2023-12-22T07:39:32;3.20;99.90
17053;DHT22;8643;48.824;11.422;2023-12-22T07:42:04;3.10;99.90
17053;DHT22;8643;48.824;11.422;2023-12-22T07:44:35;3.20;99.90
17053;DHT22;8643;48.824;11.422;2023-12-22T07:47:03;3.20;99.90
17053;DHT22;8643;48.824;11.422;2023-12-22T07:49:34;3.30;99.90
17053;DHT22;8643;48.824;11.422;2023-12-22T07:52:03;3.40;99.90
17053;DHT22;8643;48.824;11.422;2023-12-22T07:54:32;3.50;99.90
17053;DHT22;8643;48.824;11.422;2023-12-22T07:57:00;3.50;99.90
17053;DHT22;8643;48.824;11.422;2023-12-22T07:59:29;3.60;99.90
17053;DHT22;8643;48.824;11.422;2023-12-22T08:01:59;3.60;99.90
17053;DHT22;8643;48.824;11.422;2023-12-22T08:04:28;3.60;99.90
17053;DHT22;8643;48.824;11.422;2023-12-22T08:06:56;3.70;99.90
17053;DHT22;8643;48.824;11.422;2023-12-22T08:09:25;3.80;99.90
17053;DHT22;8643;48.824;11.422;2023-12-22T08:11:53;3.90;99.90
17053;DHT22;8643;48.824;11.422;2023-12-22T08:14:24;3.90;99.90
17053;DHT22;8643;48.824;11.422;2023-12-22T08:16:52;4.00;99.90
17053;DHT22;8643;48.824;11.422;2023-12-22T08:19:22;4.00;99.90
17053;DHT22;8643;48.824;11.422;2023-12-22T08:21:56;4.00;99.90
17053;DHT22;8643;48.824;11.422;2023-12-22T08:24:29;4.00;99.90
17053;DHT22;8643;48.824;11.422;2023-12-22T08:26:58;4.00;99.90
17053;DHT22;8643;48.824;11.422;2023-12-22T08:29:27;3.90;99.90
17053;DHT22;8643;48.824;11.422;2023-12-22T08:31:55;4.00;99.90
17053;DHT22;8643;48.824;11.422;2023-12-22T08:34:25;4.00;99.90
17053;DHT22;8643;48.824;11.422;2023-12-22T08:36:54;4.00;99.90
17053;DHT22;8643;48.824;11.422;2023-12-22T08:39:23;4.10;99.90
17053;DHT22;8643;48.824;11.422;2023-12-22T08:41:53;4.10;99.90
17053;DHT22;8643;48.824;11.422;2023-12-22T08:44:22;4.10;99.90
17053;DHT22;8643;48.824;11.422;2023-12-22T08:46:51;4.10;99.90
17053;DHT22;8643;48.824;11.422;2023-12-22T08:49:20;4.10;99.90
17053;DHT22;8643;48.824;11.422;2023-12-22T08:51:50;4.10;99.90
17053;DHT22;8643;48.824;11.422;2023-12-22T08:54:18;4.20;99.90
17053;DHT22;8643;48.824;11.422;2023-12-22T08:56:47;4.20;99.90
17053;DHT22;8643;48.824;11.422;2023-12-22T08:59:15;4.20;99.90
17053;DHT22;8643;48.824;11.422;2023-12-22T09:01:44;4.30;99.90
17053;DHT22;8643;48.824;11.422;2023-12-22T09:04:13;4.30;99.90
17053;DHT22;8643;48.824;11.422;2023-12-22T09:09:13;4.50;99.90
17053;DHT22;8643;48.824;11.422;2023-12-22T09:11:41;4.50;99.90
17053;DHT22;8643;48.824;11.422;2023-12-22T09:14:10;4.60;99.90
17053;DHT22;8643;48.824;11.422;2023-12-22T09:16:38;4.70;99.90
17053;DHT22;8643;48.824;11.422;2023-12-22T09:19:07;4.70;99.90
17053;DHT22;8643;48.824;11.422;2023-12-22T09:21:36;4.80;99.90
17053;DHT22;8643;48.824;11.422;2023-12-22T09:24:05;4.80;99.90
17053;DHT22;8643;48.824;11.422;2023-12-22T09:26:35;4.90;99.90
17053;DHT22;8643;48.824;11.422;2023-12-22T09:29:03;5.00;99.90
17053;DHT22;8643;48.824;11.422;2023-12-22T09:31:31;5.10;99.90
17053;DHT22;8643;48.824;11.422;2023-12-22T09:34:01;5.10;99.90
17053;DHT22;8643;48.824;11.422;2023-12-22T09:36:30;5.20;99.90
17053;DHT22;8643;48.824;11.422;2023-12-22T09:38:59;5.20;99.90
17053;DHT22;8643;48.824;11.422;2023-12-22T09:41:28;5.20;99.90
17053;DHT22;8643;48.824;11.422;2023-12-22T09:43:58;5.30;99.90
17053;DHT22;8643;48.824;11.422;2023-12-22T09:46:30;5.30;99.90
17053;DHT22;8643;48.824;11.422;2023-12-22T09:49:00;5.30;99.90
17053;DHT22;8643;48.824;11.422;2023-12-22T09:51:31;5.40;99.90
17053;DHT22;8643;48.824;11.422;2023-12-22T09:54:02;5.50;99.90
17053;DHT22;8643;48.824;11.422;2023-12-22T09:56:34;5.40;99.90
17053;DHT22;8643;48.824;11.422;2023-12-22T09:59:04;5.50;99.90
17053;DHT22;8643;48.824;11.422;2023-12-22T10:01:34;5.60;99.90
17053;DHT22;8643;48.824;11.422;2023-12-22T10:04:05;5.60;99.90
17053;DHT22;8643;48.824;11.422;2023-12-22T10:06:33;5.70;99.90
17053;DHT22;8643;48.824;11.422;2023-12-22T10:09:03;5.70;99.90
17053;DHT22;8643;48.824;11.422;2023-12-22T10:11:36;5.70;99.90
17053;DHT22;8643;48.824;11.422;2023-12-22T10:14:08;5.70;99.90
17053;DHT22;8643;48.824;11.422;2023-12-22T10:16:38;5.70;99.90
17053;DHT22;8643;48.824;11.422;2023-12-22T10:19:11;5.80;99.90
17053;DHT22;8643;48.824;11.422;2023-12-22T10:21:39;5.70;99.90
17053;DHT22;8643;48.824;11.422;2023-12-22T10:24:39;5.80;99.90
17053;DHT22;8643;48.824;11.422;2023-12-22T10:27:10;5.90;99.90
17053;DHT22;8643;48.824;11.422;2023-12-22T10:29:41;5.90;99.90
17053;DHT22;8643;48.824;11.422;2023-12-22T10:32:09;5.90;99.90
17053;DHT22;8643;48.824;11.422;2023-12-22T10:34:38;5.70;99.90
17053;DHT22;8643;48.824;11.422;2023-12-22T10:37:06;5.90;99.90
17053;DHT22;8643;48.824;11.422;2023-12-22T10:39:36;6.00;99.90
17053;DHT22;8643;48.824;11.422;2023-12-22T10:42:05;6.10;99.90
17053;DHT22;8643;48.824;11.422;2023-12-22T10:44:34;6.20;99.90
17053;DHT22;8643;48.824;11.422;2023-12-22T10:47:05;6.20;99.90
17053;DHT22;8643;48.824;11.422;2023-12-22T10:49:34;6.20;99.90
17053;DHT22;8643;48.824;11.422;2023-12-22T10:52:04;6.10;99.90
17053;DHT22;8643;48.824;11.422;2023-12-22T10:54:36;6.10;99.90
17053;DHT22;8643;48.824;11.422;2023-12-22T10:57:04;6.10;99.90
17053;DHT22;8643;48.824;11.422;2023-12-22T10:59:34;6.10;99.90
17053;DHT22;8643;48.824;11.422;2023-12-22T11:02:18;6.10;99.90
17053;DHT22;8643;48.824;11.422;2023-12-22T11:04:52;6.00;99.90
17053;DHT22;8643;48.824;11.422;2023-12-22T11:07:25;6.00;99.90
17053;DHT22;8643;48.824;11.422;2023-12-22T11:10:02;5.50;99.90
17053;DHT22;8643;48.824;11.422;2023-12-22T11:12:33;5.50;99.90
17053;DHT22;8643;48.824;11.422;2023-12-22T11:15:04;5.20;99.90
17053;DHT22;8643;48.824;11.422;2023-12-22T11:17:37;5.10;99.90
17053;DHT22;8643;48.824;11.422;2023-12-22T11:20:09;5.10;99.90
17053;DHT22;8643;48.824;11.422;2023-12-22T11:22:38;5.00;99.90
17053;DHT22;8643;48.824;11.422;2023-12-22T11:25:08;5.00;99.90
17053;DHT22;8643;48.824;11.422;2023-12-22T11:27:43;4.90;99.90
17053;DHT22;8643;48.824;11.422;2023-12-22T11:30:14;4.90;99.90
17053;DHT22;8643;48.824;11.422;2023-12-22T11:32:45;4.80;99.90
17053;DHT22;8643;48.824;11.422;2023-12-22T11:35:17;4.80;99.90
17053;DHT22;8643;48.824;11.422;2023-12-22T11:37:46;4.80;99.90
17053;DHT22;8643;48.824;11.422;2023-12-22T11:40:19;4.80;99.90
17053;DHT22;8643;48.824;11.422;2023-12-22T11:42:49;4.80;99.90
17053;DHT22;8643;48.824;11.422;2023-12-22T11:45:19;4.80;99.90
17053;DHT22;8643;48.824;11.422;2023-12-22T11:47:51;4.80;99.90
17053;DHT22;8643;48.824;11.422;2023-12-22T11:50:29;4.90;99.90
17053;DHT22;8643;48.824;11.422;2023-12-22T11:53:17;5.10;99.90
17053;DHT22;8643;48.824;11.422;2023-12-22T11:55:57;5.10;99.90
17053;DHT22;8643;48.824;11.422;2023-12-22T11:58:40;5.20;99.90
17053;DHT22;8643;48.824;11.422;2023-12-22T12:01:10;5.30;99.90
17053;DHT22;8643;48.824;11.422;2023-12-22T12:03:50;5.30;99.90
17053;DHT22;8643;48.824;11.422;2023-12-22T12:06:31;5.40;99.90
17053;DHT22;8643;48.824;11.422;2023-12-22T12:09:05;5.40;99.90
17053;DHT22;8643;48.824;11.422;2023-12-22T12:12:11;5.40;99.90
17053;DHT22;8643;48.824;11.422;2023-12-22T12:14:43;5.50;99.90
17053;DHT22;8643;48.824;11.422;2023-12-22T12:17:15;5.50;99.90
17053;DHT22;8643;48.824;11.422;2023-12-22T12:19:48;5.60;99.90
17053;DHT22;8643;48.824;11.422;2023-12-22T12:22:18;5.60;99.90
17053;DHT22;8643;48.824;11.422;2023-12-22T12:24:52;5.70;99.90
17053;DHT22;8643;48.824;11.422;2023-12-22T12:27:21;5.70;99.90
17053;DHT22;8643;48.824;11.422;2023-12-22T12:29:50;5.80;99.90
17053;DHT22;8643;48.824;11.422;2023-12-22T12:32:23;5.90;99.90
17053;DHT22;8643;48.824;11.422;2023-12-22T12:34:54;6.00;99.90
17053;DHT22;8643;48.824;11.422;2023-12-22T12:37:24;6.00;99.90
17053;DHT22;8643;48.824;11.422;2023-12-22T12:39:57;6.00;99.90
17053;DHT22;8643;48.824;11.422;2023-12-22T12:42:29;6.10;99.90
17053;DHT22;8643;48.824;11.422;2023-12-22T12:44:58;6.10;99.90
17053;DHT22;8643;48.824;11.422;2023-12-22T12:47:27;6.00;99.90
17053;DHT22;8643;48.824;11.422;2023-12-22T12:49:58;6.10;99.90
17053;DHT22;8643;48.824;11.422;2023-12-22T12:52:27;6.10;99.90
17053;DHT22;8643;48.824;11.422;2023-12-22T12:54:55;6.10;99.90
17053;DHT22;8643;48.824;11.422;2023-12-22T12:57:25;6.00;99.90
17053;DHT22;8643;48.824;11.422;2023-12-22T13:02:24;6.00;99.90
17053;DHT22;8643;48.824;11.422;2023-12-22T13:04:54;6.00;99.90
17053;DHT22;8643;48.824;11.422;2023-12-22T13:07:27;5.90;99.90
17053;DHT22;8643;48.824;11.422;2023-12-22T13:12:26;5.90;99.90
17053;DHT22;8643;48.824;11.422;2023-12-22T13:14:55;5.90;99.90
17053;DHT22;8643;48.824;11.422;2023-12-22T13:17:30;5.90;99.90
17053;DHT22;8643;48.824;11.422;2023-12-22T13:19:59;5.90;99.90
17053;DHT22;8643;48.824;11.422;2023-12-22T13:22:29;5.90;99.90
17053;DHT22;8643;48.824;11.422;2023-12-22T13:24:57;5.90;99.90
17053;DHT22;8643;48.824;11.422;2023-12-22T13:27:26;5.90;99.90
17053;DHT22;8643;48.824;11.422;2023-12-22T13:29:55;5.90;99.90
17053;DHT22;8643;48.824;11.422;2023-12-22T13:32:23;5.90;99.90
17053;DHT22;8643;48.824;11.422;2023-12-22T13:34:53;5.80;99.90
17053;DHT22;8643;48.824;11.422;2023-12-22T13:37:23;5.80;99.90
17053;DHT22;8643;48.824;11.422;2023-12-22T13:39:55;5.80;99.90
17053;DHT22;8643;48.824;11.422;2023-12-22T13:42:24;5.80;99.90
17053;DHT22;8643;48.824;11.422;2023-12-22T13:44:53;5.70;99.90
17053;DHT22;8643;48.824;11.422;2023-12-22T13:47:22;5.70;99.90
17053;DHT22;8643;48.824;11.422;2023-12-22T13:49:54;5.60;99.90
17053;DHT22;8643;48.824;11.422;2023-12-22T13:52:25;5.60;99.90
17053;DHT22;8643;48.824;11.422;2023-12-22T13:55:01;5.60;99.90
17053;DHT22;8643;48.824;11.422;2023-12-22T13:57:30;5.50;99.90
17053;DHT22;8643;48.824;11.422;2023-12-22T13:59:59;5.50;99.90
17053;DHT22;8643;48.824;11.422;2023-12-22T14:02:30;5.50;99.90
17053;DHT22;8643;48.824;11.422;2023-12-22T14:04:58;5.50;99.90
17053;DHT22;8643;48.824;11.422;2023-12-22T14:07:28;5.40;99.90
17053;DHT22;8643;48.824;11.422;2023-12-22T14:09:56;5.40;99.90
17053;DHT22;8643;48.824;11.422;2023-12-22T14:12:27;5.30;99.90
17053;DHT22;8643;48.824;11.422;2023-12-22T14:15:03;5.70;99.90
17053;DHT22;8643;48.824;11.422;2023-12-22T14:17:34;5.30;99.90
17053;DHT22;8643;48.824;11.422;2023-12-22T14:20:03;5.30;99.90
17053;DHT22;8643;48.824;11.422;2023-12-22T14:22:33;5.30;99.90
17053;DHT22;8643;48.824;11.422;2023-12-22T14:25:02;5.20;99.90
17053;DHT22;8643;48.824;11.422;2023-12-22T14:27:32;5.30;99.90
17053;DHT22;8643;48.824;11.422;2023-12-22T14:30:01;5.30;99.90
17053;DHT22;8643;48.824;11.422;2023-12-22T14:32:29;5.40;99.90
17053;DHT22;8643;48.824;11.422;2023-12-22T14:34:58;5.40;99.90
17053;DHT22;8643;48.824;11.422;2023-12-22T14:37:31;5.40;99.90
17053;DHT22;8643;48.824;11.422;2023-12-22T14:40:01;5.50;99.90
17053;DHT22;8643;48.824;11.422;2023-12-22T14:42:29;5.50;99.90
17053;DHT22;8643;48.824;11.422;2023-12-22T14:44:59;5.50;99.90
17053;DHT22;8643;48.824;11.422;2023-12-22T14:47:28;5.60;99.90
17053;DHT22;8643;48.824;11.422;2023-12-22T14:49:57;5.60;99.90
17053;DHT22;8643;48.824;11.422;2023-12-22T14:52:30;5.60;99.90
17053;DHT22;8643;48.824;11.422;2023-12-22T14:55:00;5.60;99.90
17053;DHT22;8643;48.824;11.422;2023-12-22T14:57:29;5.60;99.90
17053;DHT22;8643;48.824;11.422;2023-12-22T14:59:59;5.60;99.90
17053;DHT22;8643;48.824;11.422;2023-12-22T15:02:28;5.70;99.90
17053;DHT22;8643;48.824;11.422;2023-12-22T15:04:57;5.60;99.90
17053;DHT22;8643;48.824;11.422;2023-12-22T15:07:27;5.70;99.90
17053;DHT22;8643;48.824;11.422;2023-12-22T15:09:56;5.70;99.90
17053;DHT22;8643;48.824;11.422;2023-12-22T15:12:25;5.80;99.90
17053;DHT22;8643;48.824;11.422;2023-12-22T15:14:56;5.80;99.90
17053;DHT22;8643;48.824;11.422;2023-12-22T15:17:25;8.30;99.90
17053;DHT22;8643;48.824;11.422;2023-12-22T15:19:54;5.90;99.90
17053;DHT22;8643;48.824;11.422;2023-12-22T15:22:22;6.00;99.90
17053;DHT22;8643;48.824;11.422;2023-12-22T15:27:20;6.10;99.90
17053;DHT22;8643;48.824;11.422;2023-12-22T15:29:48;6.10;99.90
17053;DHT22;8643;48.824;11.422;2023-12-22T15:32:17;6.20;99.90
17053;DHT22;8643;48.824;11.422;2023-12-22T15:34:48;6.20;99.90
17053;DHT22;8643;48.824;11.422;2023-12-22T15:37:16;6.30;99.90
17053;DHT22;8643;48.824;11.422;2023-12-22T15:39:44;6.40;99.90
17053;DHT22;8643;48.824;11.422;2023-12-22T15:42:13;6.30;99.90
17053;DHT22;8643;48.824;11.422;2023-12-22T15:44:42;6.40;99.90
17053;DHT22;8643;48.824;11.422;2023-12-22T15:47:10;6.60;99.90
17053;DHT22;8643;48.824;11.422;2023-12-22T15:49:39;6.60;99.90
17053;DHT22;8643;48.824;11.422;2023-12-22T15:52:09;6.60;99.90
17053;DHT22;8643;48.824;11.422;2023-12-22T15:54:38;6.60;99.90
17053;DHT22;8643;48.824;11.422;2023-12-22T15:57:07;6.70;99.90
17053;DHT22;8643;48.824;11.422;2023-12-22T16:02:06;6.70;99.90
17053;DHT22;8643;48.824;11.422;2023-12-22T16:04:35;6.90;99.90
17053;DHT22;8643;48.824;11.422;2023-12-22T16:07:03;6.80;99.90
17053;DHT22;8643;48.824;11.422;2023-12-22T16:09:35;6.90;99.90
17053;DHT22;8643;48.824;11.422;2023-12-22T16:12:04;6.80;99.90
17053;DHT22;8643;48.824;11.422;2023-12-22T16:14:35;6.80;99.90
17053;DHT22;8643;48.824;11.422;2023-12-22T16:17:04;6.90;99.90
17053;DHT22;8643;48.824;11.422;2023-12-22T16:19:32;6.90;99.90
17053;DHT22;8643;48.824;11.422;2023-12-22T16:22:05;6.90;99.90
17053;DHT22;8643;48.824;11.422;2023-12-22T16:24:37;7.00;99.90
17053;DHT22;8643;48.824;11.422;2023-12-22T16:27:06;7.00;99.90
17053;DHT22;8643;48.824;11.422;2023-12-22T16:29:38;7.00;99.90
17053;DHT22;8643;48.824;11.422;2023-12-22T16:32:07;7.10;99.90
17053;DHT22;8643;48.824;11.422;2023-12-22T16:34:41;7.00;99.90